createdAt,value
2023-01-17T00:02:12.617Z,10.35
2023-01-17T00:05:00.804Z,14.95
2023-01-17T00:07:48.033Z,10.25
2023-01-17T00:10:21.987Z,10.10
2023-01-17T00:12:52.722Z,10.57
2023-01-17T00:15:21.224Z,10.43
2023-01-17T00:17:49.397Z,11.30
2023-01-17T00:20:39.353Z,10.35
2023-01-17T00:23:33.968Z,13.02
2023-01-17T00:26:04.180Z,18.90
2023-01-17T00:28:38.231Z,14.32
2023-01-17T00:31:07.096Z,14.80
2023-01-17T00:33:34.939Z,11.20
2023-01-17T00:36:03.156Z,13.00
2023-01-17T00:38:34.332Z,14.32
2023-01-17T00:41:04.600Z,13.20
2023-01-17T00:43:51.899Z,17.75
2023-01-17T00:46:38.423Z,10.32
2023-01-17T00:49:43.379Z,11.07
2023-01-17T00:52:29.087Z,12.38
2023-01-17T00:55:15.417Z,22.50
2023-01-17T00:58:01.029Z,18.08
2023-01-17T01:00:57.136Z,31.75
2023-01-17T01:03:43.194Z,35.45
2023-01-17T01:06:31.427Z,16.45
2023-01-17T01:09:17.634Z,17.33
2023-01-17T01:12:03.861Z,17.77
2023-01-17T01:14:50.052Z,13.05
2023-01-17T01:17:36.092Z,11.50
2023-01-17T01:20:23.610Z,18.05
2023-01-17T01:23:09.979Z,12.13
2023-01-17T01:25:55.699Z,12.13
2023-01-17T01:28:41.906Z,7.00
2023-01-17T01:31:27.854Z,7.07
2023-01-17T01:33:56.919Z,8.50
2023-01-17T01:36:24.122Z,13.38
2023-01-17T01:38:51.810Z,10.02
2023-01-17T01:41:19.070Z,9.30
2023-01-17T01:43:53.975Z,6.63
2023-01-17T01:46:30.549Z,6.88
2023-01-17T01:49:03.420Z,6.68
2023-01-17T01:51:43.077Z,7.32
2023-01-17T01:54:21.316Z,8.07
2023-01-17T01:56:52.829Z,7.57
2023-01-17T01:59:23.187Z,6.50
2023-01-17T02:01:53.241Z,6.90
2023-01-17T02:04:22.539Z,6.85
2023-01-17T02:06:56.386Z,6.50
2023-01-17T02:09:24.692Z,7.28
2023-01-17T02:11:52.029Z,7.85
2023-01-17T02:14:22.871Z,6.82
2023-01-17T02:17:25.459Z,8.27
2023-01-17T02:20:14.910Z,8.35
2023-01-17T02:23:20.491Z,8.10
2023-01-17T02:26:06.217Z,8.38
2023-01-17T02:28:36.552Z,8.43
2023-01-17T02:31:17.954Z,8.63
2023-01-17T02:34:15.788Z,9.00
2023-01-17T02:36:56.011Z,9.05
2023-01-17T02:39:30.201Z,7.47
2023-01-17T02:42:03.995Z,8.27
2023-01-17T02:44:41.015Z,7.88
2023-01-17T02:47:37.933Z,7.65
2023-01-17T02:50:16.051Z,7.45
2023-01-17T02:52:46.656Z,6.95
2023-01-17T02:55:35.476Z,7.80
2023-01-17T02:58:32.943Z,6.75
2023-01-17T03:01:52.106Z,7.20
2023-01-17T03:04:33.068Z,7.30
2023-01-17T03:07:10.430Z,7.55
2023-01-17T03:09:40.868Z,6.88
2023-01-17T03:12:09.833Z,6.72
2023-01-17T03:14:39.484Z,6.72
2023-01-17T03:17:07.583Z,6.68
2023-01-17T03:19:35.246Z,7.07
2023-01-17T03:22:02.428Z,7.35
2023-01-17T03:24:30.397Z,6.65
2023-01-17T03:26:57.686Z,6.85
2023-01-17T03:29:25.637Z,6.80
2023-01-17T03:31:52.913Z,7.47
2023-01-17T03:34:20.428Z,7.07
2023-01-17T03:36:47.638Z,7.55
2023-01-17T03:39:15.268Z,6.55
2023-01-17T03:41:42.954Z,6.50
2023-01-17T03:44:10.500Z,6.85
2023-01-17T03:46:37.779Z,7.00
2023-01-17T03:49:05.353Z,6.45
2023-01-17T03:51:32.582Z,7.68
2023-01-17T03:54:00.569Z,6.80
2023-01-17T03:56:27.843Z,6.32
2023-01-17T03:58:58.652Z,8.38
2023-01-17T04:01:26.253Z,7.10
2023-01-17T04:03:54.597Z,6.57
2023-01-17T04:06:21.817Z,6.72
2023-01-17T04:08:49.360Z,6.70
2023-01-17T04:11:17.108Z,6.68
2023-01-17T04:13:44.988Z,5.38
2023-01-17T04:16:19.698Z,16.55
2023-01-17T04:18:47.356Z,4.82
2023-01-17T04:21:14.713Z,5.60
2023-01-17T04:23:42.670Z,7.32
2023-01-17T04:26:12.372Z,6.40
2023-01-17T04:28:39.994Z,10.93
2023-01-17T04:31:07.548Z,9.77
2023-01-17T04:33:35.225Z,7.47
2023-01-17T04:36:02.722Z,7.57
2023-01-17T04:38:30.279Z,13.82
2023-01-17T04:40:57.832Z,13.38
2023-01-17T04:43:25.587Z,10.90
2023-01-17T04:45:56.853Z,7.20
2023-01-17T04:48:24.905Z,7.25
2023-01-17T04:50:52.164Z,12.93
2023-01-17T04:53:19.979Z,11.77
2023-01-17T04:55:48.484Z,7.72
2023-01-17T04:58:16.087Z,6.95
2023-01-17T05:00:44.112Z,6.93
2023-01-17T05:03:11.978Z,6.68
2023-01-17T05:05:39.164Z,7.65
2023-01-17T05:08:07.761Z,7.95
2023-01-17T05:10:35.227Z,33.63
2023-01-17T05:13:03.326Z,5.18
2023-01-17T05:15:30.581Z,6.00
2023-01-17T05:17:58.152Z,5.13
2023-01-17T05:20:26.802Z,4.85
2023-01-17T05:22:57.691Z,6.82
2023-01-17T05:25:28.714Z,6.20
2023-01-17T05:28:02.528Z,4.47
2023-01-17T05:30:31.752Z,4.43
2023-01-17T05:33:01.527Z,3.00
2023-01-17T05:35:32.880Z,3.38
2023-01-17T05:38:01.593Z,3.60
2023-01-17T05:40:32.217Z,2.63
2023-01-17T05:43:01.307Z,4.22
2023-01-17T05:45:29.904Z,2.83
2023-01-17T05:47:58.450Z,3.50
2023-01-17T05:50:32.305Z,4.07
2023-01-17T05:53:03.703Z,4.53
2023-01-17T05:55:31.505Z,3.33
2023-01-17T05:57:59.936Z,5.28
2023-01-17T06:00:27.920Z,5.30
2023-01-17T06:02:58.197Z,4.32
2023-01-17T06:05:27.374Z,4.93
2023-01-17T06:07:56.725Z,5.55
2023-01-17T06:10:25.511Z,4.93
2023-01-17T06:13:08.724Z,3.42
2023-01-17T06:15:38.424Z,3.80
2023-01-17T06:18:11.634Z,4.20
2023-01-17T06:20:40.397Z,3.78
2023-01-17T06:23:12.112Z,3.72
2023-01-17T06:25:41.501Z,4.63
2023-01-17T06:28:09.563Z,3.90
2023-01-17T06:30:38.341Z,3.45
2023-01-17T06:33:06.170Z,4.68
2023-01-17T06:35:33.581Z,5.60
2023-01-17T06:38:01.234Z,8.50
2023-01-17T06:40:30.907Z,9.70
2023-01-17T06:43:02.721Z,8.48
2023-01-17T06:45:32.696Z,21.10
2023-01-17T06:48:01.792Z,9.63
2023-01-17T06:50:29.003Z,9.25
2023-01-17T06:52:58.670Z,9.65
2023-01-17T06:55:31.360Z,8.32
2023-01-17T06:58:03.259Z,8.00
2023-01-17T07:00:32.207Z,8.82
2023-01-17T07:03:00.193Z,9.43
2023-01-17T07:05:28.629Z,8.57
2023-01-17T07:07:58.080Z,8.13
2023-01-17T07:10:25.322Z,8.90
2023-01-17T07:12:58.753Z,10.48
2023-01-17T07:15:25.946Z,10.32
2023-01-17T07:17:53.496Z,9.48
2023-01-17T07:20:21.172Z,9.70
2023-01-17T07:22:49.110Z,9.55
2023-01-17T07:25:16.339Z,10.75
2023-01-17T07:27:43.965Z,12.13
2023-01-17T07:30:13.180Z,14.60
2023-01-17T07:32:41.091Z,22.05
2023-01-17T07:35:08.648Z,20.77
2023-01-17T07:37:36.131Z,21.38
2023-01-17T07:40:24.371Z,20.20
2023-01-17T07:42:52.088Z,22.13
2023-01-17T07:45:20.556Z,22.90
2023-01-17T07:47:50.245Z,22.83
2023-01-17T07:50:19.167Z,26.25
2023-01-17T07:52:52.672Z,16.77
2023-01-17T07:55:19.956Z,17.35
2023-01-17T07:57:50.876Z,13.95
2023-01-17T08:00:23.378Z,14.57
2023-01-17T08:02:55.239Z,17.95
2023-01-17T08:05:23.066Z,11.20
2023-01-17T08:07:50.591Z,9.43
2023-01-17T08:10:18.280Z,11.00
2023-01-17T08:12:47.520Z,10.77
2023-01-17T08:15:16.890Z,8.63
2023-01-17T08:17:54.680Z,8.77
2023-01-17T08:20:22.187Z,6.15
2023-01-17T08:22:53.620Z,3.50
2023-01-17T08:25:21.352Z,4.60
2023-01-17T08:27:48.902Z,51.75
2023-01-17T08:30:16.511Z,28.15
2023-01-17T08:32:44.168Z,15.70
2023-01-17T08:35:11.371Z,15.35
2023-01-17T08:37:39.283Z,11.65
2023-01-17T08:40:11.254Z,23.45
2023-01-17T08:43:01.209Z,10.80
2023-01-17T08:45:29.346Z,7.38
2023-01-17T08:47:59.235Z,12.45
2023-01-17T08:50:27.133Z,21.88
2023-01-17T08:53:01.080Z,25.50
2023-01-17T08:55:28.809Z,63.72
2023-01-17T08:57:57.584Z,76.47
2023-01-17T09:00:25.274Z,38.38
2023-01-17T09:02:53.979Z,99.47
2023-01-17T09:05:21.553Z,64.32
2023-01-17T09:07:49.139Z,83.03
2023-01-17T09:10:16.896Z,62.67
2023-01-17T09:12:44.572Z,113.75
2023-01-17T09:15:14.790Z,54.20
2023-01-17T09:17:42.326Z,57.38
2023-01-17T09:20:10.663Z,33.97
2023-01-17T09:22:39.273Z,17.45
2023-01-17T09:25:07.347Z,23.30
2023-01-17T09:27:34.900Z,37.22
2023-01-17T09:30:02.491Z,32.78
2023-01-17T09:32:30.140Z,33.33
2023-01-17T09:35:01.080Z,31.60
2023-01-17T09:37:28.866Z,30.88
2023-01-17T09:39:56.212Z,39.53
2023-01-17T09:42:34.601Z,33.75
2023-01-17T09:45:02.621Z,31.48
2023-01-17T09:47:30.379Z,23.73
2023-01-17T09:50:03.482Z,20.08
2023-01-17T09:52:32.670Z,13.23
2023-01-17T09:55:00.179Z,18.13
2023-01-17T09:57:58.794Z,10.60
2023-01-17T10:00:40.997Z,10.02
2023-01-17T10:03:30.453Z,9.05
2023-01-17T10:06:22.806Z,14.20
2023-01-17T10:09:24.457Z,15.40
2023-01-17T10:12:01.125Z,12.80
2023-01-17T10:14:50.100Z,16.00
2023-01-17T10:17:32.212Z,11.13
2023-01-17T10:20:24.609Z,10.65
2023-01-17T10:23:18.435Z,17.92
2023-01-17T10:25:52.545Z,20.15
2023-01-17T10:28:24.632Z,14.30
2023-01-17T10:30:58.243Z,20.00
2023-01-17T10:33:29.432Z,15.30
2023-01-17T10:36:11.187Z,21.17
2023-01-17T10:38:41.824Z,21.48
2023-01-17T10:41:18.550Z,18.30
2023-01-17T10:44:06.741Z,15.40
2023-01-17T10:46:51.993Z,14.85
2023-01-17T10:52:12.571Z,12.05
2023-01-17T10:54:50.107Z,11.27
2023-01-17T10:57:26.087Z,12.25
2023-01-17T10:59:58.073Z,12.23
2023-01-17T11:02:36.974Z,16.00
2023-01-17T11:05:20.643Z,21.20
2023-01-17T11:07:58.452Z,25.20
2023-01-17T11:10:39.954Z,18.05
2023-01-17T11:13:23.395Z,12.70
2023-01-17T11:15:54.093Z,14.18
2023-01-17T11:18:22.494Z,34.65
2023-01-17T11:20:50.182Z,19.05
2023-01-17T11:23:30.999Z,14.68
2023-01-17T11:26:04.925Z,16.23
2023-01-17T11:28:35.244Z,24.45
2023-01-17T11:31:08.072Z,21.92
2023-01-17T11:33:45.563Z,31.23
2023-01-17T11:36:33.327Z,21.13
2023-01-17T11:39:27.640Z,21.20
2023-01-17T11:41:55.333Z,20.85
2023-01-17T11:44:30.983Z,28.88
2023-01-17T11:47:24.867Z,21.73
2023-01-17T11:49:52.532Z,26.77
2023-01-17T11:52:26.377Z,84.13
2023-01-17T11:54:55.499Z,23.83
2023-01-17T11:57:40.931Z,18.30
2023-01-17T12:00:25.053Z,23.15
2023-01-17T12:03:01.745Z,19.13
2023-01-17T12:05:53.740Z,18.70
2023-01-17T12:08:29.264Z,18.85
2023-01-17T12:11:05.986Z,20.63
2023-01-17T12:14:00.760Z,19.75
2023-01-17T12:16:43.580Z,19.45
2023-01-17T12:19:39.060Z,21.13
2023-01-17T12:22:23.450Z,19.65
2023-01-17T12:25:08.379Z,20.90
2023-01-17T12:30:18.310Z,22.13
2023-01-17T12:33:28.053Z,20.00
2023-01-17T12:36:05.838Z,19.83
2023-01-17T12:38:36.514Z,20.40
2023-01-17T12:41:14.277Z,19.75
2023-01-17T12:43:44.380Z,21.83
2023-01-17T12:46:31.262Z,22.17
2023-01-17T12:49:37.697Z,25.75
2023-01-17T12:52:33.924Z,27.25
2023-01-17T12:55:17.769Z,20.75
2023-01-17T12:57:53.162Z,26.92
2023-01-17T13:00:23.624Z,19.73
2023-01-17T13:03:08.270Z,20.40
2023-01-17T13:05:41.969Z,20.50
2023-01-17T13:08:09.264Z,18.80
2023-01-17T13:10:47.936Z,20.25
2023-01-17T13:13:25.696Z,19.30
2023-01-17T13:15:58.206Z,19.05
2023-01-17T13:18:29.921Z,21.00
2023-01-17T13:21:06.951Z,25.73
2023-01-17T13:23:47.950Z,26.98
2023-01-17T13:26:24.945Z,24.38
2023-01-17T13:29:29.262Z,25.10
2023-01-17T13:32:34.773Z,25.63
2023-01-17T13:35:42.077Z,25.77
2023-01-17T13:38:23.433Z,20.38
2023-01-17T13:40:54.989Z,20.42
2023-01-17T13:43:26.363Z,24.85
2023-01-17T13:45:56.683Z,21.40
2023-01-17T13:48:26.991Z,21.92
2023-01-17T13:51:11.070Z,22.50
2023-01-17T13:53:38.666Z,20.95
2023-01-17T13:56:29.003Z,19.73
2023-01-17T13:59:02.955Z,18.70
2023-01-17T14:01:34.921Z,16.17
2023-01-17T14:04:12.711Z,15.73
2023-01-17T14:06:47.081Z,13.45
2023-01-17T14:12:15.185Z,14.50
2023-01-17T14:14:46.246Z,15.57
2023-01-17T14:17:16.682Z,13.18
2023-01-17T14:19:48.675Z,15.60
2023-01-17T14:22:18.763Z,17.27
2023-01-17T14:25:03.370Z,18.73
2023-01-17T14:27:34.830Z,16.00
2023-01-17T14:30:16.484Z,19.20
2023-01-17T14:33:01.755Z,16.00
2023-01-17T14:35:38.652Z,14.73
2023-01-17T14:38:27.150Z,17.73
2023-01-17T14:41:23.846Z,13.55
2023-01-17T14:43:54.018Z,15.68
2023-01-17T14:46:23.800Z,13.73
2023-01-17T14:48:59.016Z,12.52
2023-01-17T14:51:26.634Z,13.68
2023-01-17T14:53:56.649Z,14.20
2023-01-17T14:56:27.435Z,15.10
2023-01-17T14:59:17.249Z,14.18
2023-01-17T15:02:06.234Z,15.27
2023-01-17T15:04:39.788Z,18.08
2023-01-17T15:07:13.276Z,17.42
2023-01-17T15:09:43.751Z,24.95
2023-01-17T15:12:16.212Z,20.80
2023-01-17T15:14:46.373Z,24.75
2023-01-17T15:17:26.873Z,33.53
2023-01-17T15:20:17.028Z,19.35
2023-01-17T15:22:45.329Z,22.15
2023-01-17T15:25:14.281Z,19.83
2023-01-17T15:27:43.110Z,20.58
2023-01-17T15:30:15.367Z,19.45
2023-01-17T15:32:48.010Z,20.42
2023-01-17T15:35:19.314Z,21.38
2023-01-17T15:37:53.908Z,22.67
2023-01-17T15:40:24.281Z,26.83
2023-01-17T15:42:59.427Z,24.88
2023-01-17T15:48:18.743Z,26.58
2023-01-17T15:50:46.451Z,15.93
2023-01-17T15:53:30.083Z,19.42
2023-01-17T15:55:57.792Z,17.92
2023-01-17T15:58:28.666Z,18.42
2023-01-17T16:00:57.308Z,23.58
2023-01-17T16:03:30.294Z,20.73
2023-01-17T16:06:00.736Z,21.42
2023-01-17T16:08:33.035Z,38.63
2023-01-17T16:11:06.487Z,26.05
2023-01-17T16:13:38.748Z,36.57
2023-01-17T16:16:15.647Z,15.63
2023-01-17T16:18:44.213Z,27.55
2023-01-17T16:21:19.884Z,19.98
2023-01-17T16:23:47.800Z,28.30
2023-01-17T16:26:15.449Z,11.68
2023-01-17T16:28:45.781Z,15.73
2023-01-17T16:31:13.281Z,17.73
2023-01-17T16:33:42.290Z,16.73
2023-01-17T16:36:15.264Z,21.25
2023-01-17T16:38:44.721Z,44.75
2023-01-17T16:41:12.073Z,29.20
2023-01-17T16:43:39.844Z,23.77
2023-01-17T16:46:07.550Z,17.05
2023-01-17T16:48:37.437Z,16.27
2023-01-17T16:51:08.326Z,19.33
2023-01-17T16:53:37.374Z,20.17
2023-01-17T16:56:14.652Z,18.05
2023-01-17T16:58:42.507Z,17.60
2023-01-17T17:01:12.051Z,16.83
2023-01-17T17:03:39.816Z,18.73
2023-01-17T17:06:07.445Z,18.15
2023-01-17T17:08:36.169Z,54.80
2023-01-17T17:11:14.650Z,31.88
2023-01-17T17:13:46.944Z,19.15
2023-01-17T17:16:24.113Z,38.47
2023-01-17T17:18:59.961Z,17.27
2023-01-17T17:21:28.772Z,17.98
2023-01-17T17:23:59.148Z,16.77
2023-01-17T17:26:31.096Z,32.65
2023-01-17T17:28:58.965Z,21.58
2023-01-17T17:31:27.119Z,22.63
2023-01-17T17:33:58.990Z,19.88
2023-01-17T17:36:26.304Z,39.42
2023-01-17T17:38:55.406Z,17.40
2023-01-17T17:41:31.725Z,28.02
2023-01-17T17:44:05.675Z,18.80
2023-01-17T17:46:35.221Z,28.25
2023-01-17T17:49:22.830Z,33.40
2023-01-17T17:51:50.194Z,22.58
2023-01-17T17:54:18.541Z,33.15
2023-01-17T17:56:49.230Z,27.00
2023-01-17T17:59:20.500Z,20.52
2023-01-17T18:02:10.792Z,18.10
2023-01-17T18:04:39.070Z,31.65
2023-01-17T18:07:09.070Z,22.17
2023-01-17T18:09:36.604Z,18.30
2023-01-17T18:12:04.139Z,15.15
2023-01-17T18:14:32.838Z,19.08
2023-01-17T18:17:00.275Z,15.55
2023-01-17T18:19:27.953Z,19.92
2023-01-17T18:21:55.408Z,12.77
2023-01-17T18:24:25.017Z,16.75
2023-01-17T18:26:58.056Z,12.25
2023-01-17T18:29:27.294Z,11.63
2023-01-17T18:31:55.576Z,11.27
2023-01-17T18:34:27.180Z,10.98
2023-01-17T18:36:54.621Z,13.57
2023-01-17T18:39:25.363Z,11.80
2023-01-17T18:41:53.264Z,12.43
2023-01-17T18:44:22.310Z,19.70
2023-01-17T18:46:59.713Z,13.63
2023-01-17T18:49:27.408Z,14.80
2023-01-17T18:51:54.712Z,12.38
2023-01-17T18:54:22.321Z,12.18
2023-01-17T18:56:51.253Z,13.45
2023-01-17T18:59:19.801Z,13.15
2023-01-17T19:01:47.692Z,11.88
2023-01-17T19:04:18.161Z,12.23
2023-01-17T19:06:48.647Z,11.63
2023-01-17T19:09:17.297Z,10.13
2023-01-17T19:11:46.238Z,22.38
2023-01-17T19:14:15.934Z,13.82
2023-01-17T19:16:43.964Z,12.98
2023-01-17T19:19:14.792Z,15.98
2023-01-17T19:21:43.057Z,14.65
2023-01-17T19:24:13.476Z,12.45
2023-01-17T19:26:42.202Z,13.38
2023-01-17T19:29:10.515Z,11.63
2023-01-17T19:31:44.465Z,9.02
2023-01-17T19:34:16.245Z,7.68
2023-01-17T19:36:43.741Z,8.35
2023-01-17T19:39:11.416Z,6.82
2023-01-17T19:41:45.650Z,9.00
2023-01-17T19:44:14.637Z,11.55
2023-01-17T19:46:42.613Z,14.93
2023-01-17T19:49:10.547Z,19.90
2023-01-17T19:51:39.749Z,8.90
2023-01-17T19:54:08.620Z,7.50
2023-01-17T19:56:36.319Z,7.78
2023-01-17T19:59:06.292Z,8.85
2023-01-17T20:01:35.606Z,9.20
2023-01-17T20:04:05.817Z,8.48
2023-01-17T20:06:37.016Z,10.32
2023-01-17T20:09:06.049Z,7.20
2023-01-17T20:11:33.548Z,6.47
2023-01-17T20:14:01.477Z,8.00
2023-01-17T20:16:32.321Z,10.05
2023-01-17T20:19:00.354Z,10.43
2023-01-17T20:21:30.160Z,7.78
2023-01-17T20:24:03.195Z,6.13
2023-01-17T20:26:37.540Z,6.07
2023-01-17T20:29:12.057Z,6.33
2023-01-17T20:31:41.446Z,6.70
2023-01-17T20:34:11.697Z,8.15
2023-01-17T20:36:42.226Z,7.88
2023-01-17T20:39:12.915Z,6.00
2023-01-17T20:41:42.949Z,6.65
2023-01-17T20:44:15.356Z,7.10
2023-01-17T20:46:42.964Z,6.22
2023-01-17T20:49:15.233Z,9.98
2023-01-17T20:51:44.552Z,8.15
2023-01-17T20:54:14.622Z,10.38
2023-01-17T20:56:43.014Z,8.07
2023-01-17T20:59:28.379Z,29.67
2023-01-17T21:04:26.209Z,10.73
2023-01-17T21:06:53.600Z,9.00
2023-01-17T21:09:22.149Z,11.10
2023-01-17T21:11:49.663Z,6.82
2023-01-17T21:14:17.249Z,5.20
2023-01-17T21:16:44.792Z,6.25
2023-01-17T21:19:15.109Z,6.47
2023-01-17T21:21:43.182Z,7.05
2023-01-17T21:24:18.674Z,6.53
2023-01-17T21:26:47.110Z,5.63
2023-01-17T21:29:16.292Z,6.50
2023-01-17T21:31:45.417Z,7.35
2023-01-17T21:34:13.901Z,6.78
2023-01-17T21:36:42.479Z,7.13
2023-01-17T21:39:16.880Z,7.90
2023-01-17T21:41:48.175Z,6.22
2023-01-17T21:44:19.870Z,5.72
2023-01-17T21:46:47.994Z,5.75
2023-01-17T21:49:15.771Z,8.43
2023-01-17T21:51:52.813Z,6.88
2023-01-17T21:54:44.571Z,5.93
2023-01-17T21:57:35.058Z,5.95
2023-01-17T22:00:25.983Z,5.80
2023-01-17T22:02:56.995Z,5.75
2023-01-17T22:05:27.768Z,5.80
2023-01-17T22:08:38.836Z,6.03
2023-01-17T22:11:11.007Z,8.52
2023-01-17T22:13:40.995Z,20.48
2023-01-17T22:16:12.403Z,9.93
2023-01-17T22:18:40.914Z,4.75
2023-01-17T22:21:14.951Z,5.63
2023-01-17T22:23:53.313Z,5.30
2023-01-17T22:26:22.883Z,4.93
2023-01-17T22:28:50.524Z,6.05
2023-01-17T22:31:23.643Z,5.25
2023-01-17T22:34:00.753Z,5.47
2023-01-17T22:36:32.055Z,4.90
2023-01-17T22:39:00.621Z,4.00
2023-01-17T22:41:34.843Z,5.20
2023-01-17T22:44:05.624Z,4.97
2023-01-17T22:46:35.960Z,6.25
2023-01-17T22:49:03.285Z,6.43
2023-01-17T22:51:30.789Z,6.88
2023-01-17T22:54:00.303Z,6.70
2023-01-17T22:56:30.994Z,6.25
2023-01-17T22:59:00.932Z,5.93
2023-01-17T23:01:31.052Z,6.05
2023-01-17T23:04:01.815Z,8.13
2023-01-17T23:06:32.681Z,6.18
2023-01-17T23:09:18.949Z,7.13
2023-01-17T23:11:53.723Z,6.45
2023-01-17T23:14:24.967Z,8.57
2023-01-17T23:17:19.902Z,9.43
2023-01-17T23:19:53.159Z,7.45
2023-01-17T23:22:23.926Z,8.27
2023-01-17T23:24:52.428Z,9.75
2023-01-17T23:27:55.497Z,6.50
2023-01-17T23:30:35.621Z,5.18
2023-01-17T23:33:06.085Z,5.22
2023-01-17T23:35:41.251Z,5.85
2023-01-17T23:38:34.776Z,8.55
2023-01-17T23:41:23.767Z,8.05
2023-01-17T23:43:59.124Z,7.82
2023-01-17T23:46:30.417Z,10.50
2023-01-17T23:48:58.105Z,6.20
2023-01-17T23:51:25.365Z,6.97
2023-01-17T23:53:57.506Z,7.32
2023-01-17T23:56:25.074Z,7.97
2023-01-17T23:58:52.606Z,9.00
